sensor_id;sensor_type;location;lat;lon;timestamp;P1;durP1;ratioP1;P2;durP2;ratioP2
47239;SDS011;32978;53.586;10.052;2022-08-25T00:02:23;7.05;;;4.50;;
47239;SDS011;32978;53.586;10.052;2022-08-25T00:07:21;5.32;;;4.20;;
47239;SDS011;32978;53.586;10.052;2022-08-25T00:12:19;6.47;;;4.03;;
47239;SDS011;32978;53.586;10.052;2022-08-25T00:17:15;7.22;;;3.80;;
47239;SDS011;32978;53.586;10.052;2022-08-25T00:22:11;7.90;;;4.30;;
47239;SDS011;32978;53.586;10.052;2022-08-25T00:27:08;12.32;;;5.10;;
47239;SDS011;32978;53.586;10.052;2022-08-25T00:32:06;6.95;;;3.72;;
47239;SDS011;32978;53.586;10.052;2022-08-25T00:37:04;7.22;;;4.13;;
47239;SDS011;32978;53.586;10.052;2022-08-25T00:42:02;9.38;;;3.72;;
47239;SDS011;32978;53.586;10.052;2022-08-25T00:47:02;5.95;;;4.20;;
47239;SDS011;32978;53.586;10.052;2022-08-25T00:52:00;4.30;;;3.15;;
47239;SDS011;32978;53.586;10.052;2022-08-25T00:56:57;7.45;;;4.43;;
47239;SDS011;32978;53.586;10.052;2022-08-25T01:01:55;8.00;;;4.22;;
47239;SDS011;32978;53.586;10.052;2022-08-25T01:06:52;6.07;;;3.80;;
47239;SDS011;32978;53.586;10.052;2022-08-25T01:11:48;5.40;;;3.80;;
47239;SDS011;32978;53.586;10.052;2022-08-25T01:16:45;7.20;;;3.72;;
47239;SDS011;32978;53.586;10.052;2022-08-25T01:21:50;7.50;;;3.53;;
47239;SDS011;32978;53.586;10.052;2022-08-25T01:26:46;5.40;;;3.50;;
47239;SDS011;32978;53.586;10.052;2022-08-25T01:31:43;7.50;;;4.07;;
47239;SDS011;32978;53.586;10.052;2022-08-25T01:36:40;6.57;;;3.75;;
47239;SDS011;32978;53.586;10.052;2022-08-25T01:46:39;6.88;;;4.65;;
47239;SDS011;32978;53.586;10.052;2022-08-25T01:51:42;7.10;;;3.95;;
47239;SDS011;32978;53.586;10.052;2022-08-25T01:56:38;6.30;;;3.72;;
47239;SDS011;32978;53.586;10.052;2022-08-25T02:01:35;5.50;;;3.80;;
47239;SDS011;32978;53.586;10.052;2022-08-25T02:06:32;8.35;;;3.50;;
47239;SDS011;32978;53.586;10.052;2022-08-25T02:11:31;6.43;;;3.95;;
47239;SDS011;32978;53.586;10.052;2022-08-25T02:16:28;6.43;;;3.35;;
47239;SDS011;32978;53.586;10.052;2022-08-25T02:21:25;7.90;;;4.03;;
47239;SDS011;32978;53.586;10.052;2022-08-25T02:26:22;9.65;;;4.55;;
47239;SDS011;32978;53.586;10.052;2022-08-25T02:31:19;7.72;;;3.92;;
47239;SDS011;32978;53.586;10.052;2022-08-25T02:36:15;6.05;;;3.70;;
47239;SDS011;32978;53.586;10.052;2022-08-25T02:41:13;6.60;;;3.88;;
47239;SDS011;32978;53.586;10.052;2022-08-25T02:46:10;7.95;;;4.00;;
47239;SDS011;32978;53.586;10.052;2022-08-25T02:51:07;6.43;;;3.90;;
47239;SDS011;32978;53.586;10.052;2022-08-25T02:56:05;6.63;;;3.78;;
47239;SDS011;32978;53.586;10.052;2022-08-25T03:01:02;7.22;;;3.88;;
47239;SDS011;32978;53.586;10.052;2022-08-25T03:05:59;6.35;;;3.60;;
47239;SDS011;32978;53.586;10.052;2022-08-25T03:10:56;6.22;;;4.10;;
47239;SDS011;32978;53.586;10.052;2022-08-25T03:15:53;5.63;;;3.25;;
47239;SDS011;32978;53.586;10.052;2022-08-25T03:20:49;8.00;;;3.50;;
47239;SDS011;32978;53.586;10.052;2022-08-25T03:25:45;7.00;;;4.50;;
47239;SDS011;32978;53.586;10.052;2022-08-25T03:31:00;6.63;;;3.90;;
47239;SDS011;32978;53.586;10.052;2022-08-25T03:35:57;7.80;;;4.22;;
47239;SDS011;32978;53.586;10.052;2022-08-25T03:40:54;6.60;;;4.28;;
47239;SDS011;32978;53.586;10.052;2022-08-25T03:45:50;7.43;;;4.40;;
47239;SDS011;32978;53.586;10.052;2022-08-25T03:50:48;6.60;;;3.67;;
47239;SDS011;32978;53.586;10.052;2022-08-25T03:55:47;7.60;;;3.97;;
47239;SDS011;32978;53.586;10.052;2022-08-25T04:00:43;6.13;;;4.55;;
47239;SDS011;32978;53.586;10.052;2022-08-25T04:05:39;6.25;;;4.10;;
47239;SDS011;32978;53.586;10.052;2022-08-25T04:10:36;7.75;;;4.63;;
47239;SDS011;32978;53.586;10.052;2022-08-25T04:15:34;8.30;;;5.05;;
47239;SDS011;32978;53.586;10.052;2022-08-25T04:20:30;6.72;;;4.07;;
47239;SDS011;32978;53.586;10.052;2022-08-25T04:25:26;6.32;;;4.35;;
47239;SDS011;32978;53.586;10.052;2022-08-25T04:30:23;6.70;;;4.15;;
47239;SDS011;32978;53.586;10.052;2022-08-25T04:35:19;7.18;;;3.85;;
47239;SDS011;32978;53.586;10.052;2022-08-25T04:40:17;6.03;;;4.57;;
47239;SDS011;32978;53.586;10.052;2022-08-25T04:45:19;8.23;;;4.63;;
47239;SDS011;32978;53.586;10.052;2022-08-25T04:50:15;11.73;;;5.90;;
47239;SDS011;32978;53.586;10.052;2022-08-25T04:55:11;9.10;;;5.07;;
47239;SDS011;32978;53.586;10.052;2022-08-25T05:00:08;6.80;;;4.00;;
47239;SDS011;32978;53.586;10.052;2022-08-25T05:05:04;10.18;;;4.22;;
47239;SDS011;32978;53.586;10.052;2022-08-25T05:10:02;13.50;;;5.30;;
47239;SDS011;32978;53.586;10.052;2022-08-25T05:14:58;7.80;;;5.22;;
47239;SDS011;32978;53.586;10.052;2022-08-25T05:20:15;7.78;;;5.05;;
47239;SDS011;32978;53.586;10.052;2022-08-25T05:25:11;7.85;;;4.70;;
47239;SDS011;32978;53.586;10.052;2022-08-25T05:30:09;10.90;;;5.80;;
47239;SDS011;32978;53.586;10.052;2022-08-25T05:35:06;9.90;;;6.15;;
47239;SDS011;32978;53.586;10.052;2022-08-25T05:40:03;12.98;;;8.73;;
47239;SDS011;32978;53.586;10.052;2022-08-25T05:45:00;12.65;;;7.40;;
47239;SDS011;32978;53.586;10.052;2022-08-25T05:49:57;11.63;;;7.80;;
47239;SDS011;32978;53.586;10.052;2022-08-25T05:54:54;14.68;;;8.40;;
47239;SDS011;32978;53.586;10.052;2022-08-25T05:59:50;14.80;;;8.57;;
47239;SDS011;32978;53.586;10.052;2022-08-25T06:04:46;11.27;;;7.63;;
47239;SDS011;32978;53.586;10.052;2022-08-25T06:09:43;12.93;;;8.77;;
47239;SDS011;32978;53.586;10.052;2022-08-25T06:14:41;11.93;;;9.18;;
47239;SDS011;32978;53.586;10.052;2022-08-25T06:19:37;12.57;;;9.63;;
47239;SDS011;32978;53.586;10.052;2022-08-25T06:24:36;12.98;;;7.97;;
47239;SDS011;32978;53.586;10.052;2022-08-25T06:29:32;15.88;;;9.50;;
47239;SDS011;32978;53.586;10.052;2022-08-25T06:34:29;13.75;;;9.13;;
47239;SDS011;32978;53.586;10.052;2022-08-25T06:39:25;14.85;;;11.23;;
47239;SDS011;32978;53.586;10.052;2022-08-25T06:44:22;14.77;;;9.90;;
47239;SDS011;32978;53.586;10.052;2022-08-25T06:49:19;13.02;;;9.05;;
47239;SDS011;32978;53.586;10.052;2022-08-25T06:54:15;15.18;;;9.38;;
47239;SDS011;32978;53.586;10.052;2022-08-25T06:59:12;13.40;;;10.30;;
47239;SDS011;32978;53.586;10.052;2022-08-25T07:04:09;11.82;;;9.07;;
47239;SDS011;32978;53.586;10.052;2022-08-25T07:09:08;14.32;;;9.60;;
47239;SDS011;32978;53.586;10.052;2022-08-25T07:14:06;12.20;;;9.70;;
47239;SDS011;32978;53.586;10.052;2022-08-25T07:19:03;14.70;;;10.20;;
47239;SDS011;32978;53.586;10.052;2022-08-25T07:24:00;13.18;;;10.85;;
47239;SDS011;32978;53.586;10.052;2022-08-25T07:28:58;11.88;;;9.73;;
47239;SDS011;32978;53.586;10.052;2022-08-25T07:33:56;13.00;;;9.07;;
47239;SDS011;32978;53.586;10.052;2022-08-25T07:39:11;10.43;;;8.23;;
47239;SDS011;32978;53.586;10.052;2022-08-25T07:44:08;13.73;;;11.02;;
47239;SDS011;32978;53.586;10.052;2022-08-25T07:49:05;14.15;;;10.35;;
47239;SDS011;32978;53.586;10.052;2022-08-25T07:54:12;10.48;;;8.20;;
47239;SDS011;32978;53.586;10.052;2022-08-25T07:59:08;12.48;;;9.55;;
47239;SDS011;32978;53.586;10.052;2022-08-25T08:04:07;10.90;;;8.73;;
47239;SDS011;32978;53.586;10.052;2022-08-25T08:09:04;9.48;;;7.47;;
47239;SDS011;32978;53.586;10.052;2022-08-25T08:14:00;12.63;;;9.40;;
47239;SDS011;32978;53.586;10.052;2022-08-25T08:18:57;10.93;;;8.32;;
47239;SDS011;32978;53.586;10.052;2022-08-25T08:23:54;9.70;;;7.63;;
47239;SDS011;32978;53.586;10.052;2022-08-25T08:28:54;10.65;;;7.72;;
47239;SDS011;32978;53.586;10.052;2022-08-25T08:33:52;11.13;;;8.70;;
47239;SDS011;32978;53.586;10.052;2022-08-25T08:38:48;11.50;;;8.20;;
47239;SDS011;32978;53.586;10.052;2022-08-25T08:43:45;11.68;;;7.97;;
47239;SDS011;32978;53.586;10.052;2022-08-25T08:53:44;10.15;;;7.20;;
47239;SDS011;32978;53.586;10.052;2022-08-25T09:03:50;12.75;;;8.90;;
47239;SDS011;32978;53.586;10.052;2022-08-25T09:08:50;13.48;;;9.63;;
47239;SDS011;32978;53.586;10.052;2022-08-25T09:14:00;12.68;;;9.75;;
47239;SDS011;32978;53.586;10.052;2022-08-25T09:34:42;13.23;;;9.38;;
47239;SDS011;32978;53.586;10.052;2022-08-25T09:39:38;15.40;;;9.98;;
47239;SDS011;32978;53.586;10.052;2022-08-25T09:44:39;13.18;;;10.32;;
47239;SDS011;32978;53.586;10.052;2022-08-25T09:49:40;12.50;;;10.13;;
47239;SDS011;32978;53.586;10.052;2022-08-25T09:54:37;12.83;;;10.13;;
47239;SDS011;32978;53.586;10.052;2022-08-25T09:59:40;17.48;;;10.63;;
47239;SDS011;32978;53.586;10.052;2022-08-25T10:09:52;9.15;;;8.35;;
47239;SDS011;32978;53.586;10.052;2022-08-25T10:14:50;10.63;;;9.73;;
47239;SDS011;32978;53.586;10.052;2022-08-25T10:20:32;10.52;;;9.52;;
47239;SDS011;32978;53.586;10.052;2022-08-25T10:25:10;10.60;;;9.52;;
47239;SDS011;32978;53.586;10.052;2022-08-25T10:30:11;12.98;;;9.90;;
47239;SDS011;32978;53.586;10.052;2022-08-25T10:35:12;9.32;;;8.48;;
47239;SDS011;32978;53.586;10.052;2022-08-25T10:40:20;8.80;;;8.02;;
47239;SDS011;32978;53.586;10.052;2022-08-25T10:45:21;10.70;;;8.50;;
47239;SDS011;32978;53.586;10.052;2022-08-25T10:50:39;9.38;;;8.57;;
47239;SDS011;32978;53.586;10.052;2022-08-25T11:01:10;8.73;;;7.93;;
47239;SDS011;32978;53.586;10.052;2022-08-25T11:06:11;10.38;;;8.57;;
47239;SDS011;32978;53.586;10.052;2022-08-25T11:16:20;10.15;;;8.23;;
47239;SDS011;32978;53.586;10.052;2022-08-25T11:21:26;9.10;;;8.05;;
47239;SDS011;32978;53.586;10.052;2022-08-25T11:26:31;7.97;;;7.38;;
47239;SDS011;32978;53.586;10.052;2022-08-25T11:31:36;9.10;;;8.10;;
47239;SDS011;32978;53.586;10.052;2022-08-25T11:36:34;10.02;;;7.82;;
47239;SDS011;32978;53.586;10.052;2022-08-25T11:41:45;9.10;;;8.20;;
47239;SDS011;32978;53.586;10.052;2022-08-25T11:46:54;8.10;;;7.32;;
47239;SDS011;32978;53.586;10.052;2022-08-25T11:51:55;11.07;;;7.93;;
47239;SDS011;32978;53.586;10.052;2022-08-25T11:57:05;7.97;;;7.18;;
47239;SDS011;32978;53.586;10.052;2022-08-25T12:02:02;9.13;;;8.32;;
47239;SDS011;32978;53.586;10.052;2022-08-25T12:12:26;10.38;;;8.73;;
47239;SDS011;32978;53.586;10.052;2022-08-25T12:17:23;9.88;;;8.13;;
47239;SDS011;32978;53.586;10.052;2022-08-25T12:43:01;9.70;;;8.57;;
47239;SDS011;32978;53.586;10.052;2022-08-25T12:48:38;10.40;;;8.38;;
47239;SDS011;32978;53.586;10.052;2022-08-25T12:53:17;8.43;;;7.65;;
47239;SDS011;32978;53.586;10.052;2022-08-25T12:58:15;9.85;;;7.50;;
47239;SDS011;32978;53.586;10.052;2022-08-25T13:13:36;10.95;;;8.60;;
47239;SDS011;32978;53.586;10.052;2022-08-25T13:18:35;8.63;;;7.93;;
47239;SDS011;32978;53.586;10.052;2022-08-25T13:23:36;7.38;;;6.65;;
47239;SDS011;32978;53.586;10.052;2022-08-25T13:28:36;8.32;;;7.53;;
47239;SDS011;32978;53.586;10.052;2022-08-25T13:33:37;8.38;;;7.57;;
47239;SDS011;32978;53.586;10.052;2022-08-25T13:38:34;8.38;;;7.68;;
47239;SDS011;32978;53.586;10.052;2022-08-25T13:43:30;8.35;;;7.65;;
47239;SDS011;32978;53.586;10.052;2022-08-25T13:48:38;10.90;;;7.60;;
47239;SDS011;32978;53.586;10.052;2022-08-25T13:53:52;8.77;;;7.90;;
47239;SDS011;32978;53.586;10.052;2022-08-25T13:58:50;8.65;;;7.85;;
47239;SDS011;32978;53.586;10.052;2022-08-25T14:03:46;8.32;;;7.53;;
47239;SDS011;32978;53.586;10.052;2022-08-25T14:08:46;8.13;;;7.35;;
47239;SDS011;32978;53.586;10.052;2022-08-25T14:13:58;8.07;;;7.28;;
47239;SDS011;32978;53.586;10.052;2022-08-25T14:18:55;8.15;;;7.35;;
47239;SDS011;32978;53.586;10.052;2022-08-25T14:23:54;8.32;;;7.32;;
47239;SDS011;32978;53.586;10.052;2022-08-25T14:28:51;8.50;;;7.70;;
47239;SDS011;32978;53.586;10.052;2022-08-25T14:33:51;8.23;;;7.53;;
47239;SDS011;32978;53.586;10.052;2022-08-25T14:38:49;8.00;;;7.20;;
47239;SDS011;32978;53.586;10.052;2022-08-25T14:43:50;8.05;;;7.28;;
47239;SDS011;32978;53.586;10.052;2022-08-25T14:48:51;7.72;;;7.03;;
47239;SDS011;32978;53.586;10.052;2022-08-25T14:53:54;9.07;;;8.18;;
47239;SDS011;32978;53.586;10.052;2022-08-25T14:58:51;10.13;;;7.82;;
47239;SDS011;32978;53.586;10.052;2022-08-25T15:03:50;7.90;;;7.20;;
47239;SDS011;32978;53.586;10.052;2022-08-25T15:08:47;8.43;;;7.68;;
47239;SDS011;32978;53.586;10.052;2022-08-25T15:14:03;9.40;;;7.63;;
47239;SDS011;32978;53.586;10.052;2022-08-25T15:19:00;9.05;;;8.20;;
47239;SDS011;32978;53.586;10.052;2022-08-25T15:24:02;8.02;;;7.20;;
47239;SDS011;32978;53.586;10.052;2022-08-25T15:29:00;8.52;;;7.70;;
47239;SDS011;32978;53.586;10.052;2022-08-25T15:33:57;7.78;;;6.97;;
47239;SDS011;32978;53.586;10.052;2022-08-25T15:38:54;9.38;;;8.48;;
47239;SDS011;32978;53.586;10.052;2022-08-25T15:43:51;8.32;;;7.55;;
47239;SDS011;32978;53.586;10.052;2022-08-25T15:48:48;8.90;;;7.20;;
47239;SDS011;32978;53.586;10.052;2022-08-25T15:53:45;8.70;;;7.18;;
47239;SDS011;32978;53.586;10.052;2022-08-25T15:58:41;8.27;;;7.47;;
47239;SDS011;32978;53.586;10.052;2022-08-25T16:03:45;9.15;;;7.82;;
47239;SDS011;32978;53.586;10.052;2022-08-25T16:08:41;10.05;;;7.35;;
47239;SDS011;32978;53.586;10.052;2022-08-25T16:13:38;9.07;;;7.30;;
47239;SDS011;32978;53.586;10.052;2022-08-25T16:18:37;9.18;;;7.38;;
47239;SDS011;32978;53.586;10.052;2022-08-25T16:23:33;8.27;;;7.32;;
47239;SDS011;32978;53.586;10.052;2022-08-25T16:28:30;8.25;;;7.43;;
47239;SDS011;32978;53.586;10.052;2022-08-25T16:33:26;8.85;;;7.95;;
47239;SDS011;32978;53.586;10.052;2022-08-25T16:38:22;8.90;;;7.20;;
47239;SDS011;32978;53.586;10.052;2022-08-25T16:43:20;8.48;;;7.68;;
47239;SDS011;32978;53.586;10.052;2022-08-25T16:48:17;8.55;;;7.63;;
47239;SDS011;32978;53.586;10.052;2022-08-25T16:53:13;8.65;;;7.78;;
47239;SDS011;32978;53.586;10.052;2022-08-25T16:58:30;8.02;;;7.25;;
47239;SDS011;32978;53.586;10.052;2022-08-25T17:03:28;10.20;;;7.28;;
47239;SDS011;32978;53.586;10.052;2022-08-25T17:08:29;10.65;;;7.20;;
47239;SDS011;32978;53.586;10.052;2022-08-25T17:13:26;8.07;;;7.30;;
47239;SDS011;32978;53.586;10.052;2022-08-25T17:18:27;8.57;;;7.68;;
47239;SDS011;32978;53.586;10.052;2022-08-25T17:23:24;7.82;;;7.13;;
47239;SDS011;32978;53.586;10.052;2022-08-25T17:28:20;8.30;;;7.50;;
47239;SDS011;32978;53.586;10.052;2022-08-25T17:33:17;8.98;;;7.90;;
47239;SDS011;32978;53.586;10.052;2022-08-25T17:38:20;8.48;;;7.22;;
47239;SDS011;32978;53.586;10.052;2022-08-25T17:43:21;8.65;;;7.45;;
47239;SDS011;32978;53.586;10.052;2022-08-25T17:48:17;9.25;;;8.13;;
47239;SDS011;32978;53.586;10.052;2022-08-25T17:53:14;11.25;;;7.70;;
47239;SDS011;32978;53.586;10.052;2022-08-25T17:58:12;9.63;;;7.43;;
47239;SDS011;32978;53.586;10.052;2022-08-25T18:03:09;8.55;;;7.15;;
47239;SDS011;32978;53.586;10.052;2022-08-25T18:08:05;8.18;;;7.13;;
47239;SDS011;32978;53.586;10.052;2022-08-25T18:13:06;10.02;;;8.15;;
47239;SDS011;32978;53.586;10.052;2022-08-25T18:18:02;9.32;;;7.32;;
47239;SDS011;32978;53.586;10.052;2022-08-25T18:23:00;7.28;;;6.47;;
47239;SDS011;32978;53.586;10.052;2022-08-25T18:27:56;7.80;;;6.82;;
47239;SDS011;32978;53.586;10.052;2022-08-25T18:32:53;7.57;;;6.65;;
47239;SDS011;32978;53.586;10.052;2022-08-25T18:37:49;7.95;;;7.03;;
47239;SDS011;32978;53.586;10.052;2022-08-25T18:43:05;7.47;;;6.78;;
47239;SDS011;32978;53.586;10.052;2022-08-25T18:48:02;10.45;;;7.70;;
47239;SDS011;32978;53.586;10.052;2022-08-25T18:53:02;11.27;;;8.20;;
47239;SDS011;32978;53.586;10.052;2022-08-25T18:58:01;7.72;;;6.90;;
47239;SDS011;32978;53.586;10.052;2022-08-25T19:02:58;8.73;;;6.75;;
47239;SDS011;32978;53.586;10.052;2022-08-25T19:07:55;10.30;;;6.45;;
47239;SDS011;32978;53.586;10.052;2022-08-25T19:12:51;11.57;;;6.65;;
47239;SDS011;32978;53.586;10.052;2022-08-25T19:17:52;9.93;;;7.13;;
47239;SDS011;32978;53.586;10.052;2022-08-25T19:22:49;8.88;;;6.80;;
47239;SDS011;32978;53.586;10.052;2022-08-25T19:27:47;9.93;;;7.32;;
47239;SDS011;32978;53.586;10.052;2022-08-25T19:32:44;8.85;;;6.10;;
47239;SDS011;32978;53.586;10.052;2022-08-25T19:37:41;13.48;;;6.88;;
47239;SDS011;32978;53.586;10.052;2022-08-25T19:42:38;11.88;;;6.05;;
47239;SDS011;32978;53.586;10.052;2022-08-25T19:47:36;9.88;;;6.20;;
47239;SDS011;32978;53.586;10.052;2022-08-25T19:52:32;10.13;;;5.95;;
47239;SDS011;32978;53.586;10.052;2022-08-25T19:57:29;12.52;;;6.03;;
47239;SDS011;32978;53.586;10.052;2022-08-25T20:02:38;10.43;;;5.65;;
47239;SDS011;32978;53.586;10.052;2022-08-25T20:07:35;6.38;;;5.32;;
47239;SDS011;32978;53.586;10.052;2022-08-25T20:12:32;9.25;;;5.70;;
47239;SDS011;32978;53.586;10.052;2022-08-25T20:17:30;11.18;;;5.88;;
47239;SDS011;32978;53.586;10.052;2022-08-25T20:22:28;7.00;;;5.18;;
47239;SDS011;32978;53.586;10.052;2022-08-25T20:27:38;7.45;;;5.85;;
47239;SDS011;32978;53.586;10.052;2022-08-25T20:32:36;9.18;;;6.00;;
47239;SDS011;32978;53.586;10.052;2022-08-25T20:37:32;10.23;;;5.95;;
47239;SDS011;32978;53.586;10.052;2022-08-25T20:42:29;12.23;;;6.68;;
47239;SDS011;32978;53.586;10.052;2022-08-25T20:47:26;8.43;;;5.72;;
47239;SDS011;32978;53.586;10.052;2022-08-25T20:52:22;9.98;;;5.65;;
47239;SDS011;32978;53.586;10.052;2022-08-25T20:57:19;8.73;;;5.75;;
47239;SDS011;32978;53.586;10.052;2022-08-25T21:02:22;7.95;;;5.38;;
47239;SDS011;32978;53.586;10.052;2022-08-25T21:07:19;8.63;;;5.28;;
47239;SDS011;32978;53.586;10.052;2022-08-25T21:12:19;10.57;;;5.70;;
47239;SDS011;32978;53.586;10.052;2022-08-25T21:17:15;10.93;;;5.38;;
47239;SDS011;32978;53.586;10.052;2022-08-25T21:22:14;11.23;;;6.13;;
47239;SDS011;32978;53.586;10.052;2022-08-25T21:27:11;8.38;;;5.63;;
47239;SDS011;32978;53.586;10.052;2022-08-25T21:32:07;10.40;;;6.00;;
47239;SDS011;32978;53.586;10.052;2022-08-25T21:37:05;9.55;;;5.70;;
47239;SDS011;32978;53.586;10.052;2022-08-25T21:42:03;10.88;;;6.90;;
47239;SDS011;32978;53.586;10.052;2022-08-25T21:46:59;7.25;;;5.88;;
47239;SDS011;32978;53.586;10.052;2022-08-25T21:51:56;11.05;;;5.82;;
47239;SDS011;32978;53.586;10.052;2022-08-25T21:57:00;7.97;;;5.82;;
47239;SDS011;32978;53.586;10.052;2022-08-25T22:01:58;10.60;;;5.80;;
47239;SDS011;32978;53.586;10.052;2022-08-25T22:06:55;9.57;;;5.80;;
47239;SDS011;32978;53.586;10.052;2022-08-25T22:11:53;10.63;;;5.78;;
47239;SDS011;32978;53.586;10.052;2022-08-25T22:16:50;12.80;;;7.95;;
47239;SDS011;32978;53.586;10.052;2022-08-25T22:21:47;7.57;;;6.00;;
47239;SDS011;32978;53.586;10.052;2022-08-25T22:26:43;11.55;;;7.50;;
47239;SDS011;32978;53.586;10.052;2022-08-25T22:31:43;11.65;;;6.13;;
47239;SDS011;32978;53.586;10.052;2022-08-25T22:36:40;10.38;;;6.53;;
47239;SDS011;32978;53.586;10.052;2022-08-25T22:41:36;12.95;;;5.93;;
47239;SDS011;32978;53.586;10.052;2022-08-25T22:46:37;9.63;;;5.75;;
47239;SDS011;32978;53.586;10.052;2022-08-25T22:51:33;10.75;;;6.13;;
47239;SDS011;32978;53.586;10.052;2022-08-25T22:56:31;8.75;;;5.22;;
47239;SDS011;32978;53.586;10.052;2022-08-25T23:01:28;9.55;;;5.55;;
47239;SDS011;32978;53.586;10.052;2022-08-25T23:06:24;12.02;;;6.40;;
47239;SDS011;32978;53.586;10.052;2022-08-25T23:11:22;11.73;;;5.78;;
47239;SDS011;32978;53.586;10.052;2022-08-25T23:16:18;10.00;;;6.75;;
47239;SDS011;32978;53.586;10.052;2022-08-25T23:21:15;9.80;;;6.05;;
47239;SDS011;32978;53.586;10.052;2022-08-25T23:26:36;11.85;;;5.80;;
47239;SDS011;32978;53.586;10.052;2022-08-25T23:31:37;10.23;;;5.53;;
47239;SDS011;32978;53.586;10.052;2022-08-25T23:36:35;11.55;;;6.28;;
47239;SDS011;32978;53.586;10.052;2022-08-25T23:41:32;11.93;;;5.75;;
47239;SDS011;32978;53.586;10.052;2022-08-25T23:46:28;9.63;;;5.40;;
47239;SDS011;32978;53.586;10.052;2022-08-25T23:51:28;9.32;;;5.45;;
47239;SDS011;32978;53.586;10.052;2022-08-25T23:56:25;12.32;;;5.75;;
